Terminal Aerodrome Forecast
Issued by NWS Dallas/Fort Worth, TX

Home | Current Version | Previous Version | Text Only | Print | Product List | Glossary On
Versions: 1 2 3 4 5 6 7 8 9 10 11 12 13 14 15 16 17 18 19 20 21 22 23 24 25 26 27 28 29 30
295
FTUS44 KFWD 041737
TAFACT
TAF
KACT 041737Z 0418/0518 34010KT P6SM OVC018
     FM042000 36010KT P6SM OVC025
     FM050000 01007KT P6SM BKN035
     FM050300 01007KT P6SM VCSH OVC012
     FM050600 02007KT 4SM -SHRA BR OVC007
     FM051500 02009KT 3SM -RA BR OVC004=

USA.gov is the U.S. government's official web portal to all federal, state and local government web resources and services.